sensor_id;sensor_type;location;lat;lon;timestamp;temperature;humidity
22469;DHT22;11401;50.792;4.352;2023-12-04T00:02:24;9.60;55.10
22469;DHT22;11401;50.792;4.352;2023-12-04T00:04:51;9.60;55.70
22469;DHT22;11401;50.792;4.352;2023-12-04T00:07:18;9.50;55.40
22469;DHT22;11401;50.792;4.352;2023-12-04T00:09:46;9.60;54.90
22469;DHT22;11401;50.792;4.352;2023-12-04T00:12:13;9.50;55.50
22469;DHT22;11401;50.792;4.352;2023-12-04T00:14:40;9.60;55.50
22469;DHT22;11401;50.792;4.352;2023-12-04T00:17:08;9.50;54.60
22469;DHT22;11401;50.792;4.352;2023-12-04T00:19:34;9.50;56.20
22469;DHT22;11401;50.792;4.352;2023-12-04T00:22:02;9.50;54.90
22469;DHT22;11401;50.792;4.352;2023-12-04T00:24:29;9.40;54.50
22469;DHT22;11401;50.792;4.352;2023-12-04T00:26:56;9.40;55.30
22469;DHT22;11401;50.792;4.352;2023-12-04T00:29:25;9.50;55.10
22469;DHT22;11401;50.792;4.352;2023-12-04T00:31:53;9.50;55.70
22469;DHT22;11401;50.792;4.352;2023-12-04T00:34:20;9.50;55.50
22469;DHT22;11401;50.792;4.352;2023-12-04T00:36:47;9.50;55.00
22469;DHT22;11401;50.792;4.352;2023-12-04T00:39:14;9.50;55.00
22469;DHT22;11401;50.792;4.352;2023-12-04T00:41:42;9.50;55.20
22469;DHT22;11401;50.792;4.352;2023-12-04T00:44:09;9.50;54.90
22469;DHT22;11401;50.792;4.352;2023-12-04T00:46:36;9.40;55.10
22469;DHT22;11401;50.792;4.352;2023-12-04T00:49:03;9.40;54.90
22469;DHT22;11401;50.792;4.352;2023-12-04T00:51:37;9.40;55.10
22469;DHT22;11401;50.792;4.352;2023-12-04T00:54:05;9.50;55.00
22469;DHT22;11401;50.792;4.352;2023-12-04T00:56:32;9.30;53.70
22469;DHT22;11401;50.792;4.352;2023-12-04T00:59:00;9.40;56.10
22469;DHT22;11401;50.792;4.352;2023-12-04T01:01:27;9.50;54.50
22469;DHT22;11401;50.792;4.352;2023-12-04T01:03:54;9.40;54.50
22469;DHT22;11401;50.792;4.352;2023-12-04T01:06:22;9.40;54.60
22469;DHT22;11401;50.792;4.352;2023-12-04T01:08:50;9.40;54.80
22469;DHT22;11401;50.792;4.352;2023-12-04T01:11:18;9.40;55.20
22469;DHT22;11401;50.792;4.352;2023-12-04T01:13:46;9.30;55.60
22469;DHT22;11401;50.792;4.352;2023-12-04T01:16:13;9.30;54.70
22469;DHT22;11401;50.792;4.352;2023-12-04T01:18:42;9.30;54.80
22469;DHT22;11401;50.792;4.352;2023-12-04T01:21:09;9.40;55.60
22469;DHT22;11401;50.792;4.352;2023-12-04T01:23:36;9.30;55.20
22469;DHT22;11401;50.792;4.352;2023-12-04T01:26:04;9.30;54.70
22469;DHT22;11401;50.792;4.352;2023-12-04T01:28:31;9.30;54.80
22469;DHT22;11401;50.792;4.352;2023-12-04T01:30:58;9.30;54.60
22469;DHT22;11401;50.792;4.352;2023-12-04T01:33:25;9.30;55.20
22469;DHT22;11401;50.792;4.352;2023-12-04T01:35:53;9.30;54.10
22469;DHT22;11401;50.792;4.352;2023-12-04T01:38:20;9.20;55.20
22469;DHT22;11401;50.792;4.352;2023-12-04T01:40:47;9.20;54.50
22469;DHT22;11401;50.792;4.352;2023-12-04T01:43:14;9.20;54.80
22469;DHT22;11401;50.792;4.352;2023-12-04T01:45:41;9.20;54.40
22469;DHT22;11401;50.792;4.352;2023-12-04T01:48:09;9.10;54.50
22469;DHT22;11401;50.792;4.352;2023-12-04T01:50:37;9.10;54.90
22469;DHT22;11401;50.792;4.352;2023-12-04T01:53:05;9.10;54.50
22469;DHT22;11401;50.792;4.352;2023-12-04T01:55:33;9.10;54.20
22469;DHT22;11401;50.792;4.352;2023-12-04T01:58:01;9.10;54.90
22469;DHT22;11401;50.792;4.352;2023-12-04T02:00:31;9.20;54.70
22469;DHT22;11401;50.792;4.352;2023-12-04T02:02:59;9.20;55.20
22469;DHT22;11401;50.792;4.352;2023-12-04T02:05:27;9.20;54.10
22469;DHT22;11401;50.792;4.352;2023-12-04T02:07:55;9.20;53.80
22469;DHT22;11401;50.792;4.352;2023-12-04T02:10:22;9.20;53.90
22469;DHT22;11401;50.792;4.352;2023-12-04T02:12:50;9.20;54.20
22469;DHT22;11401;50.792;4.352;2023-12-04T02:15:17;9.30;54.80
22469;DHT22;11401;50.792;4.352;2023-12-04T02:17:44;9.30;53.40
22469;DHT22;11401;50.792;4.352;2023-12-04T02:20:16;9.30;52.90
22469;DHT22;11401;50.792;4.352;2023-12-04T02:22:46;9.30;52.50
22469;DHT22;11401;50.792;4.352;2023-12-04T02:25:13;9.30;52.90
22469;DHT22;11401;50.792;4.352;2023-12-04T02:28:02;9.40;52.70
22469;DHT22;11401;50.792;4.352;2023-12-04T02:30:34;9.40;52.90
22469;DHT22;11401;50.792;4.352;2023-12-04T02:33:06;9.30;52.60
22469;DHT22;11401;50.792;4.352;2023-12-04T02:35:35;9.20;52.10
22469;DHT22;11401;50.792;4.352;2023-12-04T02:38:03;9.40;53.80
22469;DHT22;11401;50.792;4.352;2023-12-04T02:40:30;9.40;53.20
22469;DHT22;11401;50.792;4.352;2023-12-04T02:42:57;9.30;52.20
22469;DHT22;11401;50.792;4.352;2023-12-04T02:45:25;9.40;52.70
22469;DHT22;11401;50.792;4.352;2023-12-04T02:47:51;9.40;52.50
22469;DHT22;11401;50.792;4.352;2023-12-04T02:50:19;9.30;52.40
22469;DHT22;11401;50.792;4.352;2023-12-04T02:52:46;9.20;52.40
22469;DHT22;11401;50.792;4.352;2023-12-04T02:55:13;9.30;53.00
22469;DHT22;11401;50.792;4.352;2023-12-04T02:57:40;9.30;53.20
22469;DHT22;11401;50.792;4.352;2023-12-04T03:00:07;9.40;52.70
22469;DHT22;11401;50.792;4.352;2023-12-04T03:02:35;9.50;53.40
22469;DHT22;11401;50.792;4.352;2023-12-04T03:05:02;9.70;52.80
22469;DHT22;11401;50.792;4.352;2023-12-04T03:07:29;9.60;51.50
22469;DHT22;11401;50.792;4.352;2023-12-04T03:09:56;9.50;52.00
22469;DHT22;11401;50.792;4.352;2023-12-04T03:12:23;9.50;52.00
22469;DHT22;11401;50.792;4.352;2023-12-04T03:14:51;9.50;52.00
22469;DHT22;11401;50.792;4.352;2023-12-04T03:17:18;9.60;52.00
22469;DHT22;11401;50.792;4.352;2023-12-04T03:19:45;9.60;51.50
22469;DHT22;11401;50.792;4.352;2023-12-04T03:22:12;9.50;52.30
22469;DHT22;11401;50.792;4.352;2023-12-04T03:24:40;9.50;51.70
22469;DHT22;11401;50.792;4.352;2023-12-04T03:27:08;9.60;52.10
22469;DHT22;11401;50.792;4.352;2023-12-04T03:29:35;9.60;51.80
22469;DHT22;11401;50.792;4.352;2023-12-04T03:32:02;9.50;51.90
22469;DHT22;11401;50.792;4.352;2023-12-04T03:34:30;9.50;52.30
22469;DHT22;11401;50.792;4.352;2023-12-04T03:36:58;9.50;52.30
22469;DHT22;11401;50.792;4.352;2023-12-04T03:39:25;9.60;52.10
22469;DHT22;11401;50.792;4.352;2023-12-04T03:41:52;9.60;51.80
22469;DHT22;11401;50.792;4.352;2023-12-04T03:44:19;9.50;52.00
22469;DHT22;11401;50.792;4.352;2023-12-04T03:46:46;9.50;51.60
22469;DHT22;11401;50.792;4.352;2023-12-04T03:49:13;9.40;51.90
22469;DHT22;11401;50.792;4.352;2023-12-04T03:51:40;9.50;52.90
22469;DHT22;11401;50.792;4.352;2023-12-04T03:54:07;9.50;51.80
22469;DHT22;11401;50.792;4.352;2023-12-04T03:56:34;9.60;52.30
22469;DHT22;11401;50.792;4.352;2023-12-04T03:59:01;9.60;51.80
22469;DHT22;11401;50.792;4.352;2023-12-04T04:01:29;9.60;50.80
22469;DHT22;11401;50.792;4.352;2023-12-04T04:03:56;9.60;51.70
22469;DHT22;11401;50.792;4.352;2023-12-04T04:06:23;9.50;50.90
22469;DHT22;11401;50.792;4.352;2023-12-04T04:08:50;9.50;51.70
22469;DHT22;11401;50.792;4.352;2023-12-04T04:11:19;9.50;51.90
22469;DHT22;11401;50.792;4.352;2023-12-04T04:13:46;9.70;52.60
22469;DHT22;11401;50.792;4.352;2023-12-04T04:16:15;9.70;51.40
22469;DHT22;11401;50.792;4.352;2023-12-04T04:18:43;9.80;51.90
22469;DHT22;11401;50.792;4.352;2023-12-04T04:21:10;9.70;50.20
22469;DHT22;11401;50.792;4.352;2023-12-04T04:23:37;9.70;51.20
22469;DHT22;11401;50.792;4.352;2023-12-04T04:26:04;9.70;53.30
22469;DHT22;11401;50.792;4.352;2023-12-04T04:28:31;9.70;50.10
22469;DHT22;11401;50.792;4.352;2023-12-04T04:30:59;9.70;51.10
22469;DHT22;11401;50.792;4.352;2023-12-04T04:33:26;9.70;51.60
22469;DHT22;11401;50.792;4.352;2023-12-04T04:35:53;9.60;50.60
22469;DHT22;11401;50.792;4.352;2023-12-04T04:38:20;9.60;50.40
22469;DHT22;11401;50.792;4.352;2023-12-04T04:40:48;9.50;51.10
22469;DHT22;11401;50.792;4.352;2023-12-04T04:43:16;9.50;51.40
22469;DHT22;11401;50.792;4.352;2023-12-04T04:45:44;9.50;50.70
22469;DHT22;11401;50.792;4.352;2023-12-04T04:48:14;9.40;51.50
22469;DHT22;11401;50.792;4.352;2023-12-04T04:50:41;9.50;51.90
22469;DHT22;11401;50.792;4.352;2023-12-04T04:53:09;9.40;51.00
22469;DHT22;11401;50.792;4.352;2023-12-04T04:55:36;9.40;52.00
22469;DHT22;11401;50.792;4.352;2023-12-04T04:58:16;9.60;52.50
22469;DHT22;11401;50.792;4.352;2023-12-04T05:00:44;9.70;51.80
22469;DHT22;11401;50.792;4.352;2023-12-04T05:03:14;9.60;50.90
22469;DHT22;11401;50.792;4.352;2023-12-04T05:05:41;9.60;50.90
22469;DHT22;11401;50.792;4.352;2023-12-04T05:08:08;9.60;50.90
22469;DHT22;11401;50.792;4.352;2023-12-04T05:10:35;9.70;51.80
22469;DHT22;11401;50.792;4.352;2023-12-04T05:13:04;9.60;50.90
22469;DHT22;11401;50.792;4.352;2023-12-04T05:15:32;9.60;50.90
22469;DHT22;11401;50.792;4.352;2023-12-04T05:17:59;9.50;50.10
22469;DHT22;11401;50.792;4.352;2023-12-04T05:20:26;9.60;52.20
22469;DHT22;11401;50.792;4.352;2023-12-04T05:22:53;9.70;50.70
22469;DHT22;11401;50.792;4.352;2023-12-04T05:25:20;9.70;51.80
22469;DHT22;11401;50.792;4.352;2023-12-04T05:27:47;9.80;49.80
22469;DHT22;11401;50.792;4.352;2023-12-04T05:30:16;9.70;51.10
22469;DHT22;11401;50.792;4.352;2023-12-04T05:32:44;9.70;51.10
22469;DHT22;11401;50.792;4.352;2023-12-04T05:35:11;9.80;50.90
22469;DHT22;11401;50.792;4.352;2023-12-04T05:37:39;9.80;50.60
22469;DHT22;11401;50.792;4.352;2023-12-04T05:40:06;9.80;50.70
22469;DHT22;11401;50.792;4.352;2023-12-04T05:42:33;9.90;51.00
22469;DHT22;11401;50.792;4.352;2023-12-04T05:45:04;10.00;49.80
22469;DHT22;11401;50.792;4.352;2023-12-04T05:47:31;10.00;49.50
22469;DHT22;11401;50.792;4.352;2023-12-04T05:49:59;10.00;49.10
22469;DHT22;11401;50.792;4.352;2023-12-04T05:52:27;9.90;49.10
22469;DHT22;11401;50.792;4.352;2023-12-04T05:54:54;10.00;50.00
22469;DHT22;11401;50.792;4.352;2023-12-04T05:57:22;10.00;50.30
22469;DHT22;11401;50.792;4.352;2023-12-04T05:59:49;10.00;50.20
22469;DHT22;11401;50.792;4.352;2023-12-04T06:02:19;10.00;49.80
22469;DHT22;11401;50.792;4.352;2023-12-04T06:04:47;9.90;49.80
22469;DHT22;11401;50.792;4.352;2023-12-04T06:07:15;9.90;49.00
22469;DHT22;11401;50.792;4.352;2023-12-04T06:09:42;9.80;49.20
22469;DHT22;11401;50.792;4.352;2023-12-04T06:12:09;10.00;50.50
22469;DHT22;11401;50.792;4.352;2023-12-04T06:14:37;10.10;50.50
22469;DHT22;11401;50.792;4.352;2023-12-04T06:17:04;10.10;49.80
22469;DHT22;11401;50.792;4.352;2023-12-04T06:19:39;9.90;48.40
22469;DHT22;11401;50.792;4.352;2023-12-04T06:22:08;9.80;49.90
22469;DHT22;11401;50.792;4.352;2023-12-04T06:24:36;9.80;50.40
22469;DHT22;11401;50.792;4.352;2023-12-04T06:27:04;9.90;50.60
22469;DHT22;11401;50.792;4.352;2023-12-04T06:29:33;9.90;50.20
22469;DHT22;11401;50.792;4.352;2023-12-04T06:32:01;9.90;49.60
22469;DHT22;11401;50.792;4.352;2023-12-04T06:34:28;9.80;50.60
22469;DHT22;11401;50.792;4.352;2023-12-04T06:36:55;9.70;49.60
22469;DHT22;11401;50.792;4.352;2023-12-04T06:39:25;9.60;49.10
22469;DHT22;11401;50.792;4.352;2023-12-04T06:41:57;9.40;49.30
22469;DHT22;11401;50.792;4.352;2023-12-04T06:44:27;9.40;50.20
22469;DHT22;11401;50.792;4.352;2023-12-04T06:47:01;9.30;49.80
22469;DHT22;11401;50.792;4.352;2023-12-04T06:49:33;9.40;51.00
22469;DHT22;11401;50.792;4.352;2023-12-04T06:52:01;9.50;51.00
22469;DHT22;11401;50.792;4.352;2023-12-04T06:54:28;9.60;51.20
22469;DHT22;11401;50.792;4.352;2023-12-04T06:56:56;9.70;51.60
22469;DHT22;11401;50.792;4.352;2023-12-04T06:59:24;9.80;52.00
22469;DHT22;11401;50.792;4.352;2023-12-04T08:09:07;10.00;51.30
22469;DHT22;11401;50.792;4.352;2023-12-04T08:11:37;10.10;51.60
22469;DHT22;11401;50.792;4.352;2023-12-04T08:14:06;10.10;52.70
22469;DHT22;11401;50.792;4.352;2023-12-04T08:16:33;10.20;53.90
22469;DHT22;11401;50.792;4.352;2023-12-04T08:19:00;10.20;52.70
22469;DHT22;11401;50.792;4.352;2023-12-04T08:21:27;10.00;51.50
22469;DHT22;11401;50.792;4.352;2023-12-04T08:23:54;10.00;53.10
22469;DHT22;11401;50.792;4.352;2023-12-04T08:26:25;10.10;52.80
22469;DHT22;11401;50.792;4.352;2023-12-04T08:28:52;10.20;53.30
22469;DHT22;11401;50.792;4.352;2023-12-04T08:31:19;10.30;53.10
22469;DHT22;11401;50.792;4.352;2023-12-04T08:33:46;10.30;52.70
22469;DHT22;11401;50.792;4.352;2023-12-04T08:36:14;10.30;52.80
22469;DHT22;11401;50.792;4.352;2023-12-04T08:38:42;10.30;53.30
22469;DHT22;11401;50.792;4.352;2023-12-04T08:41:09;10.30;53.80
22469;DHT22;11401;50.792;4.352;2023-12-04T08:43:36;10.40;53.30
22469;DHT22;11401;50.792;4.352;2023-12-04T08:46:03;10.30;53.60
22469;DHT22;11401;50.792;4.352;2023-12-04T08:48:30;10.30;54.10
22469;DHT22;11401;50.792;4.352;2023-12-04T08:50:58;10.40;53.10
22469;DHT22;11401;50.792;4.352;2023-12-04T08:53:25;10.30;53.50
22469;DHT22;11401;50.792;4.352;2023-12-04T08:55:52;10.40;54.80
22469;DHT22;11401;50.792;4.352;2023-12-04T08:58:19;10.40;54.00
22469;DHT22;11401;50.792;4.352;2023-12-04T09:00:47;10.30;54.60
22469;DHT22;11401;50.792;4.352;2023-12-04T09:03:14;10.30;55.00
22469;DHT22;11401;50.792;4.352;2023-12-04T09:05:52;10.20;54.70
22469;DHT22;11401;50.792;4.352;2023-12-04T09:08:23;10.20;55.20
22469;DHT22;11401;50.792;4.352;2023-12-04T09:11:03;10.20;55.20
22469;DHT22;11401;50.792;4.352;2023-12-04T09:13:48;10.20;55.20
22469;DHT22;11401;50.792;4.352;2023-12-04T09:16:16;10.20;55.70
22469;DHT22;11401;50.792;4.352;2023-12-04T09:18:43;10.30;56.00
22469;DHT22;11401;50.792;4.352;2023-12-04T09:21:10;10.20;55.50
22469;DHT22;11401;50.792;4.352;2023-12-04T09:23:38;10.10;55.10
22469;DHT22;11401;50.792;4.352;2023-12-04T09:26:05;10.10;56.00
22469;DHT22;11401;50.792;4.352;2023-12-04T09:28:32;10.30;56.50
22469;DHT22;11401;50.792;4.352;2023-12-04T09:30:59;10.30;55.50
22469;DHT22;11401;50.792;4.352;2023-12-04T09:33:26;10.10;55.40
22469;DHT22;11401;50.792;4.352;2023-12-04T09:35:53;10.10;56.50
22469;DHT22;11401;50.792;4.352;2023-12-04T09:38:20;10.20;57.10
22469;DHT22;11401;50.792;4.352;2023-12-04T09:40:48;10.20;56.40
22469;DHT22;11401;50.792;4.352;2023-12-04T09:43:16;10.30;57.30
22469;DHT22;11401;50.792;4.352;2023-12-04T09:45:44;10.30;56.70
22469;DHT22;11401;50.792;4.352;2023-12-04T09:48:12;10.30;57.30
22469;DHT22;11401;50.792;4.352;2023-12-04T09:50:39;10.30;57.90
22469;DHT22;11401;50.792;4.352;2023-12-04T09:53:10;10.40;57.50
22469;DHT22;11401;50.792;4.352;2023-12-04T09:55:38;10.30;57.60
22469;DHT22;11401;50.792;4.352;2023-12-04T09:58:05;10.20;58.20
22469;DHT22;11401;50.792;4.352;2023-12-04T10:00:33;10.30;58.70
22469;DHT22;11401;50.792;4.352;2023-12-04T10:03:01;10.10;57.80
22469;DHT22;11401;50.792;4.352;2023-12-04T10:05:29;10.10;60.00
22469;DHT22;11401;50.792;4.352;2023-12-04T10:07:57;10.10;59.10
22469;DHT22;11401;50.792;4.352;2023-12-04T10:10:24;10.00;59.20
22469;DHT22;11401;50.792;4.352;2023-12-04T10:12:51;9.70;59.70
22469;DHT22;11401;50.792;4.352;2023-12-04T10:15:19;9.70;60.90
22469;DHT22;11401;50.792;4.352;2023-12-04T10:17:46;9.70;61.20
22469;DHT22;11401;50.792;4.352;2023-12-04T10:20:15;9.70;61.20
22469;DHT22;11401;50.792;4.352;2023-12-04T10:25:22;9.60;61.70
22469;DHT22;11401;50.792;4.352;2023-12-04T10:27:52;9.40;61.70
22469;DHT22;11401;50.792;4.352;2023-12-04T10:30:29;9.50;62.70
22469;DHT22;11401;50.792;4.352;2023-12-04T10:33:02;9.50;62.30
22469;DHT22;11401;50.792;4.352;2023-12-04T10:35:34;9.50;62.70
22469;DHT22;11401;50.792;4.352;2023-12-04T10:38:05;9.50;62.40
22469;DHT22;11401;50.792;4.352;2023-12-04T10:40:34;9.60;62.00
22469;DHT22;11401;50.792;4.352;2023-12-04T10:43:21;9.60;62.90
22469;DHT22;11401;50.792;4.352;2023-12-04T10:45:50;9.60;62.60
22469;DHT22;11401;50.792;4.352;2023-12-04T10:48:18;9.70;62.30
22469;DHT22;11401;50.792;4.352;2023-12-04T10:50:47;9.80;62.40
22469;DHT22;11401;50.792;4.352;2023-12-04T10:53:16;9.70;62.20
22469;DHT22;11401;50.792;4.352;2023-12-04T10:55:44;9.80;61.70
22469;DHT22;11401;50.792;4.352;2023-12-04T10:58:13;9.70;62.50
22469;DHT22;11401;50.792;4.352;2023-12-04T11:00:47;9.80;62.40
22469;DHT22;11401;50.792;4.352;2023-12-04T11:03:28;9.80;62.10
22469;DHT22;11401;50.792;4.352;2023-12-04T11:06:02;9.90;62.30
22469;DHT22;11401;50.792;4.352;2023-12-04T11:08:33;9.90;62.90
22469;DHT22;11401;50.792;4.352;2023-12-04T11:11:06;9.90;61.80
22469;DHT22;11401;50.792;4.352;2023-12-04T11:13:39;9.80;62.00
22469;DHT22;11401;50.792;4.352;2023-12-04T11:19:23;9.90;62.70
22469;DHT22;11401;50.792;4.352;2023-12-04T11:21:58;10.00;62.30
22469;DHT22;11401;50.792;4.352;2023-12-04T11:24:25;9.90;62.30
22469;DHT22;11401;50.792;4.352;2023-12-04T11:26:53;10.00;62.50
22469;DHT22;11401;50.792;4.352;2023-12-04T11:29:21;10.00;61.90
22469;DHT22;11401;50.792;4.352;2023-12-04T11:31:49;10.00;61.80
22469;DHT22;11401;50.792;4.352;2023-12-04T11:34:16;10.00;62.00
22469;DHT22;11401;50.792;4.352;2023-12-04T11:36:44;10.20;62.30
22469;DHT22;11401;50.792;4.352;2023-12-04T11:39:11;10.00;61.50
22469;DHT22;11401;50.792;4.352;2023-12-04T11:41:40;10.10;62.30
22469;DHT22;11401;50.792;4.352;2023-12-04T11:44:12;10.10;62.10
22469;DHT22;11401;50.792;4.352;2023-12-04T11:47:05;10.10;61.80
22469;DHT22;11401;50.792;4.352;2023-12-04T11:49:33;10.20;61.00
22469;DHT22;11401;50.792;4.352;2023-12-04T11:52:04;10.20;61.90
22469;DHT22;11401;50.792;4.352;2023-12-04T11:54:55;10.10;61.20
22469;DHT22;11401;50.792;4.352;2023-12-04T11:57:23;10.10;61.50
22469;DHT22;11401;50.792;4.352;2023-12-04T12:05:40;9.90;62.40
22469;DHT22;11401;50.792;4.352;2023-12-04T12:08:09;9.90;61.80
22469;DHT22;11401;50.792;4.352;2023-12-04T12:10:36;10.00;63.80
22469;DHT22;11401;50.792;4.352;2023-12-04T12:13:03;10.10;63.00
22469;DHT22;11401;50.792;4.352;2023-12-04T12:15:32;10.20;62.90
22469;DHT22;11401;50.792;4.352;2023-12-04T12:18:00;10.20;62.10
22469;DHT22;11401;50.792;4.352;2023-12-04T12:20:27;10.20;62.10
22469;DHT22;11401;50.792;4.352;2023-12-04T12:22:55;10.40;62.30
22469;DHT22;11401;50.792;4.352;2023-12-04T12:25:23;10.40;61.70
22469;DHT22;11401;50.792;4.352;2023-12-04T12:27:52;10.50;61.20
22469;DHT22;11401;50.792;4.352;2023-12-04T12:30:20;10.50;61.50
22469;DHT22;11401;50.792;4.352;2023-12-04T12:32:47;10.50;61.30
22469;DHT22;11401;50.792;4.352;2023-12-04T12:35:14;10.30;61.60
22469;DHT22;11401;50.792;4.352;2023-12-04T12:37:41;10.30;61.90
22469;DHT22;11401;50.792;4.352;2023-12-04T12:40:09;10.20;62.00
22469;DHT22;11401;50.792;4.352;2023-12-04T12:42:37;10.20;62.10
22469;DHT22;11401;50.792;4.352;2023-12-04T12:45:11;10.20;62.30
22469;DHT22;11401;50.792;4.352;2023-12-04T12:47:43;10.20;63.10
22469;DHT22;11401;50.792;4.352;2023-12-04T12:50:11;10.20;63.30
22469;DHT22;11401;50.792;4.352;2023-12-04T12:52:42;10.30;62.90
22469;DHT22;11401;50.792;4.352;2023-12-04T12:55:10;10.40;63.20
22469;DHT22;11401;50.792;4.352;2023-12-04T12:57:37;10.50;62.50
22469;DHT22;11401;50.792;4.352;2023-12-04T13:00:06;10.60;62.60
22469;DHT22;11401;50.792;4.352;2023-12-04T13:02:37;10.60;62.50
22469;DHT22;11401;50.792;4.352;2023-12-04T13:05:05;10.70;62.20
22469;DHT22;11401;50.792;4.352;2023-12-04T13:07:33;10.60;62.80
22469;DHT22;11401;50.792;4.352;2023-12-04T13:10:00;10.70;62.90
22469;DHT22;11401;50.792;4.352;2023-12-04T13:12:27;10.70;62.50
22469;DHT22;11401;50.792;4.352;2023-12-04T13:14:54;10.70;62.90
22469;DHT22;11401;50.792;4.352;2023-12-04T13:17:22;10.60;62.80
22469;DHT22;11401;50.792;4.352;2023-12-04T13:19:49;10.50;63.00
22469;DHT22;11401;50.792;4.352;2023-12-04T13:22:16;10.50;63.10
22469;DHT22;11401;50.792;4.352;2023-12-04T13:24:43;10.50;64.10
22469;DHT22;11401;50.792;4.352;2023-12-04T13:27:10;10.50;64.10
22469;DHT22;11401;50.792;4.352;2023-12-04T13:29:38;10.50;63.70
22469;DHT22;11401;50.792;4.352;2023-12-04T13:32:05;10.60;63.70
22469;DHT22;11401;50.792;4.352;2023-12-04T13:34:32;10.70;63.70
22469;DHT22;11401;50.792;4.352;2023-12-04T13:36:59;10.50;64.30
22469;DHT22;11401;50.792;4.352;2023-12-04T13:39:26;10.50;64.50
22469;DHT22;11401;50.792;4.352;2023-12-04T13:42:03;10.60;64.60
22469;DHT22;11401;50.792;4.352;2023-12-04T13:44:49;10.70;64.40
22469;DHT22;11401;50.792;4.352;2023-12-04T13:47:18;10.70;64.00
22469;DHT22;11401;50.792;4.352;2023-12-04T13:49:45;10.80;64.10
22469;DHT22;11401;50.792;4.352;2023-12-04T13:52:13;10.70;64.40
22469;DHT22;11401;50.792;4.352;2023-12-04T13:54:41;10.70;64.60
22469;DHT22;11401;50.792;4.352;2023-12-04T13:57:11;10.80;65.10
22469;DHT22;11401;50.792;4.352;2023-12-04T13:59:45;10.80;63.90
22469;DHT22;11401;50.792;4.352;2023-12-04T14:02:13;10.90;64.50
22469;DHT22;11401;50.792;4.352;2023-12-04T14:04:41;11.00;64.20
22469;DHT22;11401;50.792;4.352;2023-12-04T14:07:09;10.90;63.70
22469;DHT22;11401;50.792;4.352;2023-12-04T14:09:37;10.90;64.70
22469;DHT22;11401;50.792;4.352;2023-12-04T14:12:04;10.90;64.50
22469;DHT22;11401;50.792;4.352;2023-12-04T14:14:32;11.00;64.60
22469;DHT22;11401;50.792;4.352;2023-12-04T14:17:00;11.00;64.50
22469;DHT22;11401;50.792;4.352;2023-12-04T14:19:30;11.20;64.80
22469;DHT22;11401;50.792;4.352;2023-12-04T14:22:00;11.60;63.60
22469;DHT22;11401;50.792;4.352;2023-12-04T14:24:38;11.70;61.80
22469;DHT22;11401;50.792;4.352;2023-12-04T14:27:05;11.50;62.30
22469;DHT22;11401;50.792;4.352;2023-12-04T14:29:32;11.40;63.00
22469;DHT22;11401;50.792;4.352;2023-12-04T14:32:00;11.40;63.40
22469;DHT22;11401;50.792;4.352;2023-12-04T14:34:27;11.30;63.60
22469;DHT22;11401;50.792;4.352;2023-12-04T14:36:55;11.30;63.80
22469;DHT22;11401;50.792;4.352;2023-12-04T14:39:22;11.10;63.80
22469;DHT22;11401;50.792;4.352;2023-12-04T14:41:50;11.20;64.80
22469;DHT22;11401;50.792;4.352;2023-12-04T14:44:18;11.20;64.40
22469;DHT22;11401;50.792;4.352;2023-12-04T14:46:45;11.20;64.30
22469;DHT22;11401;50.792;4.352;2023-12-04T14:49:12;11.10;64.00
22469;DHT22;11401;50.792;4.352;2023-12-04T14:51:40;11.10;65.10
22469;DHT22;11401;50.792;4.352;2023-12-04T14:54:07;11.20;65.20
22469;DHT22;11401;50.792;4.352;2023-12-04T14:56:42;11.20;64.60
22469;DHT22;11401;50.792;4.352;2023-12-04T14:59:28;11.20;64.70
22469;DHT22;11401;50.792;4.352;2023-12-04T15:02:13;11.20;64.80
22469;DHT22;11401;50.792;4.352;2023-12-04T15:05:13;11.10;65.50
22469;DHT22;11401;50.792;4.352;2023-12-04T15:07:46;11.10;65.20
22469;DHT22;11401;50.792;4.352;2023-12-04T15:10:32;11.10;65.80
22469;DHT22;11401;50.792;4.352;2023-12-04T15:13:22;11.20;65.50
22469;DHT22;11401;50.792;4.352;2023-12-04T15:16:05;11.30;65.40
22469;DHT22;11401;50.792;4.352;2023-12-04T15:18:47;11.30;65.40
22469;DHT22;11401;50.792;4.352;2023-12-04T15:21:24;11.50;65.20
22469;DHT22;11401;50.792;4.352;2023-12-04T15:23:51;11.50;64.40
22469;DHT22;11401;50.792;4.352;2023-12-04T15:26:19;11.60;64.20
22469;DHT22;11401;50.792;4.352;2023-12-04T15:28:47;11.50;64.30
22469;DHT22;11401;50.792;4.352;2023-12-04T15:31:16;11.60;64.10
22469;DHT22;11401;50.792;4.352;2023-12-04T15:33:44;11.60;63.60
22469;DHT22;11401;50.792;4.352;2023-12-04T15:36:11;11.80;63.70
22469;DHT22;11401;50.792;4.352;2023-12-04T15:38:39;11.80;62.90
22469;DHT22;11401;50.792;4.352;2023-12-04T15:41:06;11.80;62.90
22469;DHT22;11401;50.792;4.352;2023-12-04T15:43:35;11.90;62.90
22469;DHT22;11401;50.792;4.352;2023-12-04T15:46:02;11.90;62.70
22469;DHT22;11401;50.792;4.352;2023-12-04T15:48:29;12.00;62.60
22469;DHT22;11401;50.792;4.352;2023-12-04T15:50:57;12.00;62.40
22469;DHT22;11401;50.792;4.352;2023-12-04T15:53:24;12.10;62.60
22469;DHT22;11401;50.792;4.352;2023-12-04T15:55:51;12.10;62.40
22469;DHT22;11401;50.792;4.352;2023-12-04T15:58:18;12.20;62.10
22469;DHT22;11401;50.792;4.352;2023-12-04T16:00:45;12.20;62.00
22469;DHT22;11401;50.792;4.352;2023-12-04T16:03:13;12.20;62.00
22469;DHT22;11401;50.792;4.352;2023-12-04T16:05:40;12.20;62.00
22469;DHT22;11401;50.792;4.352;2023-12-04T16:08:08;12.30;62.10
22469;DHT22;11401;50.792;4.352;2023-12-04T16:10:35;12.30;61.80
22469;DHT22;11401;50.792;4.352;2023-12-04T16:13:04;12.20;61.50
22469;DHT22;11401;50.792;4.352;2023-12-04T16:15:31;12.20;62.00
22469;DHT22;11401;50.792;4.352;2023-12-04T16:17:59;12.20;63.10
22469;DHT22;11401;50.792;4.352;2023-12-04T16:20:26;12.20;61.50
22469;DHT22;11401;50.792;4.352;2023-12-04T16:22:53;12.30;62.10
22469;DHT22;11401;50.792;4.352;2023-12-04T16:25:21;12.30;61.80
22469;DHT22;11401;50.792;4.352;2023-12-04T16:27:49;12.40;62.00
22469;DHT22;11401;50.792;4.352;2023-12-04T16:30:17;12.40;61.20
22469;DHT22;11401;50.792;4.352;2023-12-04T16:32:46;12.40;61.40
22469;DHT22;11401;50.792;4.352;2023-12-04T16:35:13;12.50;61.30
22469;DHT22;11401;50.792;4.352;2023-12-04T16:37:40;12.40;61.00
22469;DHT22;11401;50.792;4.352;2023-12-04T16:40:08;12.40;61.70
22469;DHT22;11401;50.792;4.352;2023-12-04T16:42:36;12.50;61.60
22469;DHT22;11401;50.792;4.352;2023-12-04T16:45:03;12.50;61.50
22469;DHT22;11401;50.792;4.352;2023-12-04T16:47:31;12.50;61.40
22469;DHT22;11401;50.792;4.352;2023-12-04T16:49:59;12.50;61.40
22469;DHT22;11401;50.792;4.352;2023-12-04T16:52:25;12.60;61.60
22469;DHT22;11401;50.792;4.352;2023-12-04T16:54:54;12.60;61.30
22469;DHT22;11401;50.792;4.352;2023-12-04T16:57:21;12.70;61.10
22469;DHT22;11401;50.792;4.352;2023-12-04T16:59:49;12.60;61.30
22469;DHT22;11401;50.792;4.352;2023-12-04T17:02:18;12.60;61.50
22469;DHT22;11401;50.792;4.352;2023-12-04T17:04:45;12.60;61.50
22469;DHT22;11401;50.792;4.352;2023-12-04T17:07:13;12.60;61.30